Estación municipal de Arbúcies (La Selva, Parc natural del Montseny)

Consulta los datos en tiempo real de la estación municipal de Arbúcies





Hora UTC 18:40
Temperatura 13.7 ºC
Humedad 68.2 %
Presión 1026.0 hPa
Pluja 0.0 mm
Velocidad viento 2.0 km/h
Dirección viento SSW
Radiación solar 0.0 W/m²

Datos diarios 2026-04-15



Hora UTC (invierno +1h; verano +2h)
Temperatura (ºC) Humedad (%) Presión (hPa) Velocidad viento (km/h) Precipitación (mm) Radiación solar (W/m²)
Hora UTC Aire Humedad Presión Vel. Dir. Vel. Max Dir. Intent. máx 5 min. Rad. Sol.
00:05 6.2 83.8 1026.0 0.1 SW 3.5 WSW 0.0 0.0
00:10 6.2 83.9 1026.0 0.2 SW 5.6 SW 0.0 0.0
00:15 6.1 83.8 1026.0 0.4 SW 6.4 SW 0.0 0.0
00:20 6.2 83.9 1027.0 0.5 SW 9.2 SW 0.0 0.0
00:25 6.0 83.8 1026.0 0.0 SW 0.4 SSW 0.0 0.0
00:30 5.9 84.5 1026.0 0.0 SW 0.4 SW 0.0 0.0
00:35 5.8 85.1 1026.0 0.0 SSW 0.4 SW 0.0 0.0
00:40 5.7 85.7 1026.0 0.3 SW 9.5 WSW 0.0 0.0
00:45 5.9 86.1 1026.0 1.0 SW 9.5 WSW 0.0 0.0
00:50 6.3 84.4 1027.0 1.2 SW 8.8 SSW 0.0 0.0
00:55 6.4 83.3 1026.0 1.5 SW 13.1 SW 0.0 0.0
01:00 6.2 82.8 1026.0 0.1 SW 6.0 WSW 0.0 0.0
01:05 5.9 83.6 1026.0 0.0 SW 0.4 SW 0.0 0.0
01:10 6.0 84.7 1026.0 0.0 WSW 1.1 WSW 0.0 0.0
01:15 6.4 83.5 1026.0 0.0 SW 0.4 SW 0.0 0.0
01:20 6.3 81.8 1027.0 0.0 SW 0.4 WSW 0.0 0.0
01:25 6.0 83.0 1026.0 0.0 SW 1.4 SW 0.0 0.0
01:30 5.8 84.5 1026.0 0.1 SW 5.6 WSW 0.0 0.0
01:35 6.2 84.7 1026.0 0.5 SW 6.4 SW 0.0 0.0
01:40 6.3 83.4 1026.0 1.3 SW 9.5 SW 0.0 0.0
01:45 6.5 82.2 1026.0 0.1 SW 4.2 SW 0.0 0.0
01:50 6.5 81.3 1027.0 0.2 SW 3.9 SW 0.0 0.0
01:55 6.4 81.5 1026.0 0.1 SW 3.5 SW 0.0 0.0
02:00 6.2 81.9 1026.0 0.0 SW 0.4 SSW 0.0 0.0
02:05 6.2 82.3 1026.0 0.0 SW 0.4 SW 0.0 0.0
02:10 6.2 82.9 1026.0 0.3 SW 6.7 SW 0.0 0.0
02:15 6.3 82.7 1026.0 0.9 WSW 10.6 W 0.0 0.0
02:20 6.8 80.5 1027.0 0.4 SW 10.2 SW 0.0 0.0
02:25 6.7 78.5 1026.0 0.0 SW 0.4 SW 0.0 0.0
02:30 6.0 80.7 1026.0 0.0 SW 0.4 WSW 0.0 0.0
02:35 5.6 82.7 1026.0 0.0 SW 0.4 SW 0.0 0.0
02:40 5.5 84.1 1026.0 0.0 SW 0.4 SW 0.0 0.0
02:45 5.5 84.9 1026.0 0.0 SW 0.4 SSW 0.0 0.0
02:50 5.4 85.6 1027.0 0.0 SSW 0.4 SW 0.0 0.0
02:55 5.4 85.8 1026.0 0.0 SW 0.4 SSW 0.0 0.0
03:00 5.4 86.3 1026.0 0.5 SW 5.6 SSW 0.0 0.0
03:05 5.5 85.9 1026.0 0.1 SW 3.2 WSW 0.0 0.0
03:10 5.6 85.9 1026.0 0.4 SW 5.3 SW 0.0 0.0
03:15 5.3 85.2 1025.0 0.1 SW 2.1 WSW 0.0 0.0
03:20 5.6 85.9 1027.0 0.1 WSW 2.5 WSW 0.0 0.0
03:25 5.6 84.5 1026.0 0.0 SW 0.7 SW 0.0 0.0
03:30 5.2 84.6 1026.0 0.0 SW 0.4 SW 0.0 0.0
03:35 4.9 85.8 1026.0 0.0 SW 0.4 SSW 0.0 0.0
03:40 5.2 86.6 1026.0 0.1 SW 4.6 WSW 0.0 0.0
03:45 5.1 85.7 1026.0 0.0 SW 0.4 SW 0.0 0.0
03:50 4.9 86.4 1027.0 0.0 SW 0.4 SSW 0.0 0.0
03:55 4.8 86.6 1026.0 0.0 SW 0.4 SW 0.0 0.0
04:00 4.9 87.6 1026.0 0.0 SW 1.8 SW 0.0 0.0
04:05 5.4 86.1 1026.0 1.1 SW 7.4 SW 0.0 0.0
04:10 5.7 84.1 1026.0 4.8 SW 11.6 SW 0.0 0.0
04:15 5.6 83.1 1026.0 4.7 SSW 9.2 SSW 0.0 0.0
04:20 5.4 83.6 1027.0 5.8 SW 9.9 SW 0.0 0.0
04:25 5.3 84.1 1026.0 2.6 SW 8.5 SW 0.0 0.0
04:30 5.2 84.6 1026.0 2.4 SW 8.8 SW 0.0 0.0
04:35 5.4 83.9 1026.0 3.0 SW 12.0 SW 0.0 0.0
04:40 5.9 80.5 1026.0 4.5 SW 10.6 SW 0.0 0.0
04:45 6.0 78.5 1026.0 5.1 SW 12.0 SW 0.0 0.0
04:50 5.7 79.6 1027.0 2.0 SW 9.2 SW 0.0 0.0
04:55 5.4 81.4 1026.0 1.1 SW 14.5 WSW 0.0 0.0
05:00 5.2 82.3 1026.0 0.7 SW 5.6 SW 0.0 0.0
05:05 5.1 83.4 1026.0 0.0 SW 0.4 SW 0.0 0.0
05:10 5.0 83.6 1026.0 0.0 SSW 0.4 SSW 0.0 0.1
05:15 4.8 84.1 1026.0 0.0 SSW 0.7 SW 0.0 1.8
05:20 4.9 85.2 1027.0 0.5 SSW 13.4 SW 0.0 4.6
05:25 5.1 84.7 1026.0 3.2 SSW 10.2 SSW 0.0 7.6
05:30 5.4 83.1 1026.0 3.4 SSW 11.3 SW 0.0 10.5
05:35 5.3 83.0 1026.0 3.0 SW 10.2 SW 0.0 27.5
05:40 5.6 82.4 1026.0 3.7 SSW 10.2 SSW 0.0 50.8
05:45 5.9 80.3 1026.0 3.0 SSW 9.9 SSW 0.0 64.0
05:50 6.2 78.0 1027.0 3.9 SW 10.9 SW 0.0 77.9
05:55 6.4 76.1 1026.0 6.3 SSW 13.4 SW 0.0 92.6
06:00 6.7 75.0 1026.0 3.4 SSW 12.7 SSW 0.0 107.1
06:05 6.8 74.5 1026.0 4.3 SSW 12.0 SSW 0.0 122.6
06:10 7.1 72.8 1026.0 4.9 SSW 13.8 SSW 0.0 138.6
06:15 7.5 71.0 1026.0 3.4 SSW 13.8 SSW 0.0 154.3
06:20 7.8 69.6 1027.0 4.9 SSW 12.3 SSW 0.0 170.0
06:25 8.0 69.5 1026.0 3.1 SSW 10.9 SSW 0.0 185.9
06:30 8.3 69.6 1026.0 0.4 SSW 6.4 SSW 0.0 201.2
06:35 8.7 67.3 1026.0 0.3 SSW 6.4 S 0.0 218.3
06:40 9.0 65.9 1026.0 2.9 SSW 10.9 SSW 0.0 236.3
06:45 9.3 66.2 1026.0 4.5 SSW 12.0 SSW 0.0 253.6
06:50 9.6 65.5 1027.0 4.6 SSW 11.6 SSW 0.0 270.9
06:55 10.0 63.5 1026.0 6.0 SSW 10.6 SSW 0.0 288.7
07:00 10.5 62.6 1026.0 3.7 SSW 9.5 SW 0.0 305.5
07:05 10.8 60.8 1027.0 2.5 SSW 10.6 SSW 0.0 322.6
07:10 11.3 59.4 1026.0 0.2 S 6.0 SSW 0.0 339.4
07:15 11.7 58.2 1027.0 0.5 SSW 8.1 SSW 0.0 357.3
07:20 12.1 57.3 1027.0 0.1 SSW 3.2 SSW 0.0 374.0
07:25 12.6 55.6 1027.0 0.0 SSW 0.4 S 0.0 389.7
07:30 13.1 54.3 1027.0 0.0 SSW 0.4 SSW 0.0 405.3
07:35 13.5 54.6 1027.0 0.0 S 0.4 SSE 0.0 419.6
07:40 14.3 53.4 1026.0 0.0 SSW 0.7 S 0.0 433.4
07:45 14.6 50.7 1027.0 0.0 S 0.4 WNW 0.0 450.5
07:50 14.8 48.4 1027.0 0.0 ESE 0.4 NE 0.0 466.5
07:55 15.6 42.9 1027.0 0.0 ENE 0.4 ENE 0.0 483.7
08:00 15.9 40.0 1027.0 0.0 ENE 0.4 ENE 0.0 502.0
08:05 16.1 39.6 1027.0 0.0 ENE 0.4 ENE 0.0 518.0
08:10 16.3 36.9 1027.0 0.0 E 0.4 E 0.0 533.0
08:15 16.6 38.2 1027.0 0.0 E 0.4 SSE 0.0 549.5
08:20 16.7 38.4 1027.0 0.0 ENE 0.4 SSE 0.0 566.2
08:25 16.7 38.9 1027.0 0.0 ENE 0.4 SE 0.0 510.9
08:30 17.0 37.1 1027.0 0.0 ENE 0.4 N 0.0 597.2
08:35 16.9 37.2 1027.0 0.0 NE 0.4 ENE 0.0 609.4
08:40 17.2 35.2 1027.0 0.0 NE 0.4 NE 0.0 625.8
08:45 17.3 35.6 1027.0 0.0 ENE 0.4 NE 0.0 640.4
08:50 17.1 36.2 1027.0 0.0 ENE 0.4 NNE 0.0 654.0
08:55 17.1 34.3 1027.0 0.0 ENE 0.4 ENE 0.0 667.7
09:00 17.1 35.4 1027.0 0.0 ENE 0.4 NNE 0.0 682.0
09:05 17.2 35.5 1027.0 0.2 ENE 6.4 ENE 0.0 696.6
09:10 17.4 36.1 1027.0 0.1 NNE 2.1 NE 0.0 708.9
09:15 17.1 36.1 1027.0 0.0 N 0.4 N 0.0 720.3
09:20 17.5 38.1 1027.0 1.7 NE 8.8 NE 0.0 734.2
09:25 17.5 36.3 1027.0 0.0 N 0.4 E 0.0 746.3
09:30 17.7 36.7 1027.0 0.6 ENE 7.8 NE 0.0 757.9
09:35 17.8 37.0 1027.0 0.1 ENE 2.8 NE 0.0 768.4
09:40 17.8 36.1 1027.0 0.2 ENE 7.1 E 0.0 779.0
09:45 18.0 37.0 1027.0 2.4 NE 11.3 ENE 0.0 788.6
09:50 18.1 36.2 1027.0 0.0 NE 0.7 NE 0.0 798.3
09:55 18.6 35.3 1027.0 0.0 ESE 0.4 ENE 0.0 805.0
10:00 18.8 34.6 1027.0 2.4 ENE 11.6 NE 0.0 815.0
10:05 18.4 35.1 1027.0 2.8 ENE 12.7 ENE 0.0 825.0
10:10 18.3 34.0 1027.0 3.2 ENE 12.0 NE 0.0 835.0
10:15 18.4 34.3 1027.0 5.8 NE 14.8 NNE 0.0 845.0
10:20 18.8 31.2 1027.0 2.8 ENE 15.9 ENE 0.0 851.0
10:25 18.5 30.5 1027.0 3.1 ENE 11.3 E 0.0 858.0
10:30 18.9 32.2 1027.0 4.6 NE 18.3 ENE 0.0 866.0
10:35 18.9 32.1 1027.0 3.2 ENE 15.2 ENE 0.0 872.0
10:40 19.4 32.8 1027.0 1.9 NE 10.9 ENE 0.0 877.0
10:45 19.3 31.9 1027.0 7.9 ENE 20.8 ENE 0.0 884.0
10:50 19.4 32.6 1027.0 5.3 NE 15.5 NE 0.0 888.0
10:55 19.3 32.4 1026.0 4.0 NE 17.3 ENE 0.0 895.0
11:00 19.5 32.4 1026.0 4.8 NE 16.6 NE 0.0 900.0
11:05 19.7 32.9 1026.0 4.8 NE 16.6 NE 0.0 903.0
11:10 19.5 31.7 1026.0 7.2 ENE 18.3 NNE 0.0 908.0
11:15 19.4 32.2 1026.0 1.7 ENE 13.1 ENE 0.0 910.0
11:20 19.8 32.1 1027.0 1.9 E 10.9 ENE 0.0 912.0
11:25 19.9 32.1 1026.0 7.9 ENE 19.1 NE 0.0 917.0
11:30 19.8 32.1 1026.0 3.7 NE 10.9 ENE 0.0 918.0
11:35 20.1 32.0 1026.0 2.3 NE 16.2 ENE 0.0 919.0
11:40 20.6 31.4 1026.0 2.4 NE 12.7 NE 0.0 920.0
11:45 20.4 32.1 1026.0 5.2 NE 18.0 NE 0.0 925.0
11:50 20.6 31.8 1026.0 4.7 NE 22.6 NNE 0.0 925.0
11:55 20.6 32.2 1026.0 2.4 ENE 17.6 ENE 0.0 923.0
12:00 20.6 31.5 1026.0 7.1 NE 17.3 ENE 0.0 921.0
12:05 20.5 32.1 1026.0 5.7 NE 15.9 NE 0.0 921.0
12:10 20.7 31.9 1026.0 4.9 ENE 15.2 ENE 0.0 920.0
12:15 20.7 32.1 1026.0 8.0 ENE 19.1 ENE 0.0 918.0
12:20 20.6 31.7 1026.0 6.8 ENE 21.9 NE 0.0 915.0
12:25 20.9 32.2 1026.0 3.4 NE 16.9 ENE 0.0 910.0
12:30 21.1 31.6 1025.0 3.4 NE 16.2 ENE 0.0 907.0
12:35 21.2 31.3 1025.0 7.9 ENE 15.2 NE 0.0 906.0
12:40 21.1 31.0 1025.0 8.0 ENE 20.5 ENE 0.0 902.0
12:45 20.8 31.4 1026.0 6.1 ENE 19.4 ENE 0.0 897.0
12:50 20.8 32.1 1026.0 2.0 ENE 16.9 ENE 0.0 890.0
12:55 20.9 31.4 1026.0 8.8 NE 20.1 NE 0.0 887.0
13:00 20.6 32.1 1025.0 7.4 NE 18.3 NE 0.0 882.0
13:05 20.5 31.7 1025.0 12.1 NE 24.3 ENE 0.0 875.0
13:10 20.6 31.5 1025.0 9.3 NE 19.8 ENE 0.0 869.0
13:15 20.7 31.7 1025.0 7.6 NE 17.3 NE 0.0 861.0
13:20 20.8 30.7 1026.0 6.3 NE 20.1 NE 0.0 854.0
13:25 21.1 30.6 1026.0 5.5 NE 16.6 ENE 0.0 778.2
13:30 21.1 29.5 1026.0 4.5 NE 19.8 E 0.0 836.0
13:35 21.2 29.3 1026.0 3.8 ENE 12.3 ENE 0.0 828.0
13:40 20.9 29.6 1025.0 9.2 ENE 17.6 ENE 0.0 821.0
13:45 21.1 29.5 1025.0 8.5 NE 22.9 NE 0.0 812.0
13:50 20.8 29.7 1026.0 8.1 NE 19.1 NE 0.0 802.0
13:55 20.7 29.6 1025.0 7.0 NNE 19.4 ENE 0.0 792.1
14:00 20.6 29.4 1025.0 8.8 NE 18.7 NE 0.0 780.6
14:05 20.8 29.5 1025.0 13.0 NE 25.4 ENE 0.0 769.6
14:10 20.6 29.2 1025.0 6.0 ENE 14.5 ENE 0.0 758.8
14:15 20.8 29.7 1025.0 5.2 ENE 18.7 ENE 0.0 747.7
14:20 20.9 29.3 1026.0 6.7 ENE 17.3 ENE 0.0 735.8
14:25 20.8 29.4 1025.0 9.3 ENE 19.8 ENE 0.0 723.6
14:30 20.5 30.2 1025.0 7.3 NE 19.8 NE 0.0 710.5
14:35 20.7 30.1 1025.0 2.6 NE 15.5 ENE 0.0 695.2
14:40 20.8 30.3 1025.0 7.5 NE 21.9 NE 0.0 682.7
14:45 20.8 30.9 1025.0 3.1 ENE 13.4 ENE 0.0 669.1
14:50 20.8 31.1 1026.0 7.4 ENE 17.3 ENE 0.0 656.9
14:55 20.9 31.3 1025.0 7.0 NE 18.7 E 0.0 643.4
15:00 20.7 31.4 1025.0 8.2 NE 17.6 ENE 0.0 628.8
15:05 20.7 31.8 1025.0 9.4 NE 19.1 NE 0.0 614.3
15:10 20.7 32.3 1025.0 5.8 ENE 16.9 NE 0.0 599.0
15:15 20.7 32.8 1025.0 6.9 ENE 15.2 ENE 0.0 583.6
15:20 20.9 33.2 1026.0 2.7 ENE 16.9 ENE 0.0 566.3
15:25 21.1 33.4 1025.0 5.4 NE 16.2 ENE 0.0 551.6
15:30 21.0 33.8 1025.0 8.3 NE 16.6 NE 0.0 536.8
15:35 21.2 34.0 1025.0 1.1 ENE 14.5 ENE 0.0 518.4
15:40 21.3 33.7 1025.0 5.3 ENE 13.4 NE 0.0 503.4
15:45 21.1 34.4 1025.0 6.3 NE 16.9 NE 0.0 489.7
15:50 20.9 34.7 1026.0 3.7 NE 13.1 ENE 0.0 472.1
15:55 21.0 34.8 1025.0 5.1 ENE 13.4 ENE 0.0 455.9
16:00 20.8 34.8 1025.0 3.5 ENE 15.2 NE 0.0 439.6
16:05 20.6 35.5 1025.0 5.5 ENE 26.5 ENE 0.0 422.7
16:10 20.5 35.7 1025.0 1.6 E 10.9 ENE 0.0 406.7
16:15 20.7 36.4 1025.0 0.4 ENE 7.8 ENE 0.0 388.9
16:20 21.0 35.2 1026.0 2.6 ENE 12.7 NE 0.0 372.5
16:25 20.8 36.2 1025.0 4.1 NE 15.5 ENE 0.0 357.1
16:30 20.7 37.4 1025.0 2.9 NE 14.1 NE 0.0 339.0
16:35 20.5 37.8 1025.0 8.1 NE 18.0 ENE 0.0 321.8
16:40 20.3 38.7 1026.0 6.2 NE 18.0 NE 0.0 303.8
16:45 20.1 39.3 1025.0 8.2 NE 18.0 ENE 0.0 286.6
16:50 20.0 40.1 1026.0 3.4 NNE 13.8 NE 0.0 267.2
16:55 20.0 40.4 1026.0 3.2 NE 15.2 ENE 0.0 250.0
17:00 19.9 40.7 1026.0 4.1 NE 14.1 NE 0.0 233.2
17:05 19.7 41.1 1026.0 5.7 ENE 12.3 NE 0.0 216.9
17:10 19.6 42.1 1026.0 5.9 NE 11.6 NE 0.0 199.8
17:15 19.4 42.7 1026.0 6.7 NE 14.5 ENE 0.0 183.6
17:20 19.3 43.3 1026.0 1.3 ENE 8.5 NE 0.0 151.7
17:25 19.0 44.1 1026.0 2.2 ENE 7.4 NE 0.0 53.9
17:30 18.8 44.5 1025.0 0.0 ENE 0.4 ENE 0.0 32.6
17:35 18.7 44.8 1026.0 0.0 E 0.4 SSE 0.0 31.5
17:40 18.6 45.8 1026.0 0.0 ENE 0.7 ENE 0.0 28.8
17:45 18.3 47.9 1026.0 0.2 NE 4.2 ENE 0.0 25.6
17:50 17.9 48.4 1027.0 0.4 NE 6.4 ENE 0.0 23.1
17:55 17.7 51.5 1026.0 0.0 ESE 0.7 NE 0.0 20.2
18:00 16.6 56.9 1026.0 0.0 SW 0.7 SW 0.0 17.2
18:05 15.9 59.7 1026.0 0.0 SSW 0.4 SSW 0.0 14.6
18:10 15.4 61.8 1026.0 0.0 SW 0.4 SSW 0.0 12.1
18:15 15.0 63.3 1026.0 0.0 SW 0.4 SW 0.0 9.6
18:20 14.9 62.6 1027.0 0.4 SSW 5.6 SSW 0.0 6.9
18:25 15.0 61.5 1026.0 0.3 SSW 6.0 SSW 0.0 4.7
18:30 14.5 64.2 1027.0 0.0 SSW 0.4 S 0.0 2.0
18:35 14.0 67.0 1027.0 0.1 SW 3.5 SW 0.0 0.2
18:40 13.7 68.2 1026.0 2.0 SSW 7.4 SSW 0.0 0.0
Máxima 21.3 87.6 1027.0 13.0 NE 26.5 ENE 0.0 925.0
Mínima 4.8 29.2 1025.0
Total 0.0